sensor_id;sensor_type;location;lat;lon;timestamp;pressure;altitude;pressure_sealevel;temperature;humidity
39681;BME280;26327;42.550;23.120;2022-09-25T06:37:25;93146.41;;;12.52;71.76
39681;BME280;26327;42.550;23.120;2022-09-25T06:39:51;93046.81;;;11.99;73.75
39681;BME280;26327;42.550;23.120;2022-09-25T06:42:16;93129.16;;;12.51;73.28
39681;BME280;26327;42.550;23.120;2022-09-25T06:44:41;93084.66;;;12.31;72.72
39681;BME280;26327;42.550;23.120;2022-09-25T06:47:08;93072.69;;;12.37;71.89
39681;BME280;26327;42.550;23.120;2022-09-25T06:49:37;93076.59;;;12.47;71.99
39681;BME280;26327;42.550;23.120;2022-09-25T06:52:02;93139.34;;;12.88;72.49
39681;BME280;26327;42.550;23.120;2022-09-25T06:54:31;93123.38;;;12.77;71.00
39681;BME280;26327;42.550;23.120;2022-09-25T06:56:57;93150.81;;;12.94;71.42
39681;BME280;26327;42.550;23.120;2022-09-25T06:59:22;93097.63;;;12.67;70.36
39681;BME280;26327;42.550;23.120;2022-09-25T07:01:50;93084.47;;;12.54;70.30
39681;BME280;26327;42.550;23.120;2022-09-25T07:04:15;93142.53;;;13.12;72.00
39681;BME280;26327;42.550;23.120;2022-09-25T07:06:41;93094.41;;;12.86;68.36
39681;BME280;26327;42.550;23.120;2022-09-25T07:09:06;93070.31;;;12.63;68.02
39681;BME280;26327;42.550;23.120;2022-09-25T07:11:32;93117.31;;;12.91;68.84
39681;BME280;26327;42.550;23.120;2022-09-25T07:13:57;93180.22;;;13.24;69.02
39681;BME280;26327;42.550;23.120;2022-09-25T07:16:25;93184.13;;;13.35;68.66
39681;BME280;26327;42.550;23.120;2022-09-25T07:18:56;93160.31;;;13.23;68.76
39681;BME280;26327;42.550;23.120;2022-09-25T07:21:22;93137.03;;;13.00;69.38
39681;BME280;26327;42.550;23.120;2022-09-25T07:23:50;93123.00;;;13.01;70.64
39681;BME280;26327;42.550;23.120;2022-09-25T07:26:23;93201.06;;;13.45;71.37
39681;BME280;26327;42.550;23.120;2022-09-25T07:28:54;93088.56;;;12.84;71.35
39681;BME280;26327;42.550;23.120;2022-09-25T07:31:25;93190.53;;;13.60;70.01
39681;BME280;26327;42.550;23.120;2022-09-25T07:33:51;93070.19;;;12.71;69.53
39681;BME280;26327;42.550;23.120;2022-09-25T07:36:17;93060.31;;;12.88;70.00
39681;BME280;26327;42.550;23.120;2022-09-25T07:38:43;93147.63;;;13.41;69.53
39681;BME280;26327;42.550;23.120;2022-09-25T07:41:10;93098.00;;;13.35;72.67
39681;BME280;26327;42.550;23.120;2022-09-25T07:43:37;93094.47;;;13.49;69.42
39681;BME280;26327;42.550;23.120;2022-09-25T07:46:04;93091.09;;;13.55;70.17
39681;BME280;26327;42.550;23.120;2022-09-25T07:48:29;93158.03;;;13.97;68.30
39681;BME280;26327;42.550;23.120;2022-09-25T07:51:03;93097.44;;;13.74;68.36
39681;BME280;26327;42.550;23.120;2022-09-25T07:53:29;93066.25;;;13.66;67.25
39681;BME280;26327;42.550;23.120;2022-09-25T07:55:58;93043.13;;;13.63;65.52
39681;BME280;26327;42.550;23.120;2022-09-25T07:58:25;93065.31;;;13.73;64.67
39681;BME280;26327;42.550;23.120;2022-09-25T08:00:57;93064.75;;;13.84;65.59
39681;BME280;26327;42.550;23.120;2022-09-25T08:03:26;93108.66;;;14.15;67.02
39681;BME280;26327;42.550;23.120;2022-09-25T08:05:58;93155.34;;;14.66;65.78
39681;BME280;26327;42.550;23.120;2022-09-25T08:08:26;93097.50;;;14.35;65.46
39681;BME280;26327;42.550;23.120;2022-09-25T08:10:52;93160.59;;;14.73;66.56
39681;BME280;26327;42.550;23.120;2022-09-25T08:13:18;93083.63;;;14.41;65.20
39681;BME280;26327;42.550;23.120;2022-09-25T08:15:45;92998.28;;;14.00;64.12
39681;BME280;26327;42.550;23.120;2022-09-25T08:18:12;93144.94;;;14.99;63.01
39681;BME280;26327;42.550;23.120;2022-09-25T08:20:38;93073.69;;;14.71;64.24
39681;BME280;26327;42.550;23.120;2022-09-25T08:23:05;93059.00;;;14.76;64.41
39681;BME280;26327;42.550;23.120;2022-09-25T08:25:31;93111.34;;;15.23;64.55
39681;BME280;26327;42.550;23.120;2022-09-25T08:27:56;93056.56;;;15.01;61.83
39681;BME280;26327;42.550;23.120;2022-09-25T08:30:22;93102.06;;;15.40;63.83
39681;BME280;26327;42.550;23.120;2022-09-25T08:32:47;93090.16;;;15.57;62.15
39681;BME280;26327;42.550;23.120;2022-09-25T08:35:13;93094.63;;;15.70;61.40
39681;BME280;26327;42.550;23.120;2022-09-25T08:37:41;93099.63;;;15.52;63.15
39681;BME280;26327;42.550;23.120;2022-09-25T08:40:15;93112.13;;;15.76;62.23
39681;BME280;26327;42.550;23.120;2022-09-25T08:42:43;93098.16;;;15.95;59.31
39681;BME280;26327;42.550;23.120;2022-09-25T08:45:24;93061.94;;;15.79;61.23
39681;BME280;26327;42.550;23.120;2022-09-25T08:48:33;93096.69;;;16.19;60.28
39681;BME280;26327;42.550;23.120;2022-09-25T08:51:47;93130.75;;;16.26;63.03
39681;BME280;26327;42.550;23.120;2022-09-25T08:54:23;93109.41;;;16.54;57.45
39681;BME280;26327;42.550;23.120;2022-09-25T08:56:58;93089.75;;;16.76;59.63
39681;BME280;26327;42.550;23.120;2022-09-25T08:59:37;93050.69;;;16.55;60.86
39681;BME280;26327;42.550;23.120;2022-09-25T09:02:36;93085.91;;;17.10;56.14
39681;BME280;26327;42.550;23.120;2022-09-25T09:05:04;93095.47;;;16.98;56.62
39681;BME280;26327;42.550;23.120;2022-09-25T09:07:38;93051.41;;;17.07;57.87
39681;BME280;26327;42.550;23.120;2022-09-25T09:12:37;93057.09;;;17.72;55.11
39681;BME280;26327;42.550;23.120;2022-09-25T09:18:06;93052.91;;;18.19;54.64
39681;BME280;26327;42.550;23.120;2022-09-25T09:20:48;93072.41;;;18.48;50.31
39681;BME280;26327;42.550;23.120;2022-09-25T09:23:21;93101.97;;;18.43;52.04
39681;BME280;26327;42.550;23.120;2022-09-25T09:25:50;93097.06;;;17.99;50.84
39681;BME280;26327;42.550;23.120;2022-09-25T09:39:51;93086.59;;;17.92;52.34
39681;BME280;26327;42.550;23.120;2022-09-25T09:53:07;93061.69;;;18.61;52.66
39681;BME280;26327;42.550;23.120;2022-09-25T09:55:43;92997.19;;;18.40;53.38
39681;BME280;26327;42.550;23.120;2022-09-25T09:58:18;93059.09;;;19.03;55.25
39681;BME280;26327;42.550;23.120;2022-09-25T10:00:47;93037.00;;;19.39;52.33
39681;BME280;26327;42.550;23.120;2022-09-25T10:03:25;92982.41;;;19.46;51.78
39681;BME280;26327;42.550;23.120;2022-09-25T10:05:57;92993.81;;;19.75;50.37
39681;BME280;26327;42.550;23.120;2022-09-25T10:08:23;92993.00;;;19.86;49.45
39681;BME280;26327;42.550;23.120;2022-09-25T10:10:50;93030.97;;;20.65;47.23
39681;BME280;26327;42.550;23.120;2022-09-25T10:13:23;93036.50;;;20.64;44.89
39681;BME280;26327;42.550;23.120;2022-09-25T10:18:26;93040.00;;;22.69;42.39
39681;BME280;26327;42.550;23.120;2022-09-25T10:23:54;92976.22;;;23.67;37.22
39681;BME280;26327;42.550;23.120;2022-09-25T10:26:30;92969.66;;;22.78;38.00
39681;BME280;26327;42.550;23.120;2022-09-25T10:29:01;93017.00;;;24.70;35.11
39681;BME280;26327;42.550;23.120;2022-09-25T10:31:38;93002.88;;;23.97;35.55
39681;BME280;26327;42.550;23.120;2022-09-25T10:36:46;92985.72;;;25.59;32.26
39681;BME280;26327;42.550;23.120;2022-09-25T10:39:32;93011.91;;;26.26;30.86
39681;BME280;26327;42.550;23.120;2022-09-25T10:41:59;92980.38;;;26.59;30.42
39681;BME280;26327;42.550;23.120;2022-09-25T10:46:52;92991.06;;;26.49;27.17
39681;BME280;26327;42.550;23.120;2022-09-25T10:49:46;92994.25;;;24.22;29.87
39681;BME280;26327;42.550;23.120;2022-09-25T10:52:53;93005.34;;;25.93;27.82
39681;BME280;26327;42.550;23.120;2022-09-25T10:58:18;93002.47;;;25.49;25.98
39681;BME280;26327;42.550;23.120;2022-09-25T11:03:17;92994.41;;;27.53;26.00
39681;BME280;26327;42.550;23.120;2022-09-25T11:05:49;92927.03;;;27.90;25.90
39681;BME280;26327;42.550;23.120;2022-09-25T11:08:16;92970.72;;;27.12;26.07
39681;BME280;26327;42.550;23.120;2022-09-25T11:10:54;92955.31;;;27.67;26.44
39681;BME280;26327;42.550;23.120;2022-09-25T11:13:25;92987.63;;;28.18;25.70
39681;BME280;26327;42.550;23.120;2022-09-25T11:15:55;92984.22;;;28.13;24.21
39681;BME280;26327;42.550;23.120;2022-09-25T11:21:20;92985.88;;;28.09;25.61
39681;BME280;26327;42.550;23.120;2022-09-25T11:26:35;92960.34;;;28.45;26.17
39681;BME280;26327;42.550;23.120;2022-09-25T11:34:55;92986.09;;;30.42;24.31
39681;BME280;26327;42.550;23.120;2022-09-25T11:37:37;92990.28;;;29.74;23.16
39681;BME280;26327;42.550;23.120;2022-09-25T11:43:13;92918.88;;;30.24;23.43
39681;BME280;26327;42.550;23.120;2022-09-25T11:45:45;92972.38;;;31.07;22.63
39681;BME280;26327;42.550;23.120;2022-09-25T11:48:22;92983.59;;;30.59;23.23
39681;BME280;26327;42.550;23.120;2022-09-25T11:56:56;92928.44;;;31.92;21.10
39681;BME280;26327;42.550;23.120;2022-09-25T12:02:02;92893.25;;;32.11;21.56
39681;BME280;26327;42.550;23.120;2022-09-25T12:07:09;92944.00;;;32.61;21.20
39681;BME280;26327;42.550;23.120;2022-09-25T12:12:27;92945.53;;;31.43;24.61
39681;BME280;26327;42.550;23.120;2022-09-25T12:15:11;92938.63;;;32.61;21.71
39681;BME280;26327;42.550;23.120;2022-09-25T12:25:50;92920.25;;;34.81;20.18
39681;BME280;26327;42.550;23.120;2022-09-25T12:36:54;92923.53;;;31.32;23.65
39681;BME280;26327;42.550;23.120;2022-09-25T12:39:40;92915.56;;;32.77;21.74
39681;BME280;26327;42.550;23.120;2022-09-25T12:45:09;92910.88;;;31.63;23.67
39681;BME280;26327;42.550;23.120;2022-09-25T12:48:08;92906.69;;;32.76;22.32
39681;BME280;26327;42.550;23.120;2022-09-25T12:51:00;92876.63;;;33.00;21.02
39681;BME280;26327;42.550;23.120;2022-09-25T12:53:42;92843.00;;;32.20;22.81
39681;BME280;26327;42.550;23.120;2022-09-25T12:56:26;92907.91;;;32.44;22.02
39681;BME280;26327;42.550;23.120;2022-09-25T12:59:55;92854.44;;;32.34;21.64
39681;BME280;26327;42.550;23.120;2022-09-25T13:02:10;92897.34;;;32.08;21.87
39681;BME280;26327;42.550;23.120;2022-09-25T13:07:49;92880.59;;;33.93;19.92
39681;BME280;26327;42.550;23.120;2022-09-25T13:10:48;92883.13;;;35.19;19.75
39681;BME280;26327;42.550;23.120;2022-09-25T13:13:22;92873.00;;;35.82;18.22
39681;BME280;26327;42.550;23.120;2022-09-25T13:15:59;92853.81;;;33.06;20.25
39681;BME280;26327;42.550;23.120;2022-09-25T13:18:28;92846.63;;;33.54;20.08
39681;BME280;26327;42.550;23.120;2022-09-25T13:20:55;92834.03;;;32.50;20.35
39681;BME280;26327;42.550;23.120;2022-09-25T13:23:31;92810.63;;;33.11;19.69
39681;BME280;26327;42.550;23.120;2022-09-25T13:26:27;92860.47;;;34.49;18.63
39681;BME280;26327;42.550;23.120;2022-09-25T13:28:56;92865.63;;;33.66;19.78
39681;BME280;26327;42.550;23.120;2022-09-25T13:31:26;92861.75;;;31.94;21.42
39681;BME280;26327;42.550;23.120;2022-09-25T13:34:04;92855.06;;;31.83;21.04
39681;BME280;26327;42.550;23.120;2022-09-25T13:36:57;92855.38;;;32.30;21.89
39681;BME280;26327;42.550;23.120;2022-09-25T13:39:26;92855.97;;;31.39;21.72
39681;BME280;26327;42.550;23.120;2022-09-25T13:42:40;92858.63;;;30.72;22.52
39681;BME280;26327;42.550;23.120;2022-09-25T13:50:25;92795.59;;;32.33;21.03
39681;BME280;26327;42.550;23.120;2022-09-25T14:03:47;92845.25;;;30.58;23.51
39681;BME280;26327;42.550;23.120;2022-09-25T14:06:25;92782.69;;;30.85;24.41
39681;BME280;26327;42.550;23.120;2022-09-25T14:08:55;92811.91;;;31.71;22.12
39681;BME280;26327;42.550;23.120;2022-09-25T14:11:31;92850.03;;;31.90;22.28
39681;BME280;26327;42.550;23.120;2022-09-25T14:13:59;92816.34;;;31.44;22.24
39681;BME280;26327;42.550;23.120;2022-09-25T14:16:34;92830.41;;;31.19;22.24
39681;BME280;26327;42.550;23.120;2022-09-25T14:19:03;92824.09;;;30.56;23.37
39681;BME280;26327;42.550;23.120;2022-09-25T14:21:30;92771.28;;;29.57;23.92
39681;BME280;26327;42.550;23.120;2022-09-25T14:24:11;92798.22;;;28.17;25.37
39681;BME280;26327;42.550;23.120;2022-09-25T14:26:44;92753.47;;;28.28;24.95
39681;BME280;26327;42.550;23.120;2022-09-25T14:29:24;92774.91;;;27.85;25.88
39681;BME280;26327;42.550;23.120;2022-09-25T14:35:06;92856.78;;;27.71;26.68
39681;BME280;26327;42.550;23.120;2022-09-25T14:43:35;92861.84;;;28.15;20.70
39681;BME280;26327;42.550;23.120;2022-09-25T14:46:13;92833.25;;;26.62;20.49
39681;BME280;26327;42.550;23.120;2022-09-25T14:48:51;92861.91;;;26.75;21.59
39681;BME280;26327;42.550;23.120;2022-09-25T14:51:23;92841.19;;;26.67;21.76
39681;BME280;26327;42.550;23.120;2022-09-25T14:53:56;92839.69;;;27.19;21.76
39681;BME280;26327;42.550;23.120;2022-09-25T14:56:23;92865.94;;;27.65;20.46
39681;BME280;26327;42.550;23.120;2022-09-25T14:58:53;92850.81;;;26.97;21.53
39681;BME280;26327;42.550;23.120;2022-09-25T15:01:29;92859.53;;;27.08;21.54
39681;BME280;26327;42.550;23.120;2022-09-25T15:03:58;92793.50;;;25.82;22.78
39681;BME280;26327;42.550;23.120;2022-09-25T15:06:31;92867.97;;;26.02;24.17
39681;BME280;26327;42.550;23.120;2022-09-25T15:08:57;92852.06;;;25.82;24.87
39681;BME280;26327;42.550;23.120;2022-09-25T15:11:25;92789.00;;;24.98;24.22
39681;BME280;26327;42.550;23.120;2022-09-25T15:14:07;92741.75;;;23.93;24.93
39681;BME280;26327;42.550;23.120;2022-09-25T15:16:35;92792.38;;;23.14;26.84
39681;BME280;26327;42.550;23.120;2022-09-25T15:19:23;92695.56;;;21.75;26.75
39681;BME280;26327;42.550;23.120;2022-09-25T15:21:51;92800.16;;;22.46;28.89
39681;BME280;26327;42.550;23.120;2022-09-25T15:24:22;92841.47;;;22.79;28.60
39681;BME280;26327;42.550;23.120;2022-09-25T15:26:51;92852.53;;;22.71;28.72
39681;BME280;26327;42.550;23.120;2022-09-25T15:29:21;92862.50;;;22.64;28.94
39681;BME280;26327;42.550;23.120;2022-09-25T15:31:49;92855.47;;;21.89;28.92
39681;BME280;26327;42.550;23.120;2022-09-25T15:34:20;92828.13;;;21.34;30.48
39681;BME280;26327;42.550;23.120;2022-09-25T15:36:47;92851.78;;;21.08;30.85
39681;BME280;26327;42.550;23.120;2022-09-25T15:39:17;92659.03;;;19.58;31.21
39681;BME280;26327;42.550;23.120;2022-09-25T15:41:45;92839.53;;;20.46;31.37
39681;BME280;26327;42.550;23.120;2022-09-25T15:44:19;92818.63;;;20.28;31.22
39681;BME280;26327;42.550;23.120;2022-09-25T15:46:59;92805.63;;;19.76;32.03
39681;BME280;26327;42.550;23.120;2022-09-25T15:49:32;92801.13;;;19.76;32.35
39681;BME280;26327;42.550;23.120;2022-09-25T15:52:01;92798.75;;;19.75;33.54
39681;BME280;26327;42.550;23.120;2022-09-25T15:54:34;92861.38;;;19.96;33.95
39681;BME280;26327;42.550;23.120;2022-09-25T15:57:02;92772.75;;;19.10;33.98
39681;BME280;26327;42.550;23.120;2022-09-25T15:59:37;92829.50;;;19.17;35.02
39681;BME280;26327;42.550;23.120;2022-09-25T16:02:28;92703.81;;;18.61;35.32
39681;BME280;26327;42.550;23.120;2022-09-25T16:05:15;92798.69;;;19.18;36.49
39681;BME280;26327;42.550;23.120;2022-09-25T16:07:44;92847.84;;;19.12;36.58
39681;BME280;26327;42.550;23.120;2022-09-25T16:18:00;92818.28;;;18.05;39.02
39681;BME280;26327;42.550;23.120;2022-09-25T16:20:36;92815.09;;;18.03;39.80
39681;BME280;26327;42.550;23.120;2022-09-25T16:23:05;92825.28;;;18.11;41.23
39681;BME280;26327;42.550;23.120;2022-09-25T16:25:34;92835.44;;;18.08;43.71
39681;BME280;26327;42.550;23.120;2022-09-25T16:28:16;92874.31;;;18.17;45.41
39681;BME280;26327;42.550;23.120;2022-09-25T16:30:48;92737.19;;;17.07;48.30
39681;BME280;26327;42.550;23.120;2022-09-25T16:33:36;92885.94;;;17.68;49.10
39681;BME280;26327;42.550;23.120;2022-09-25T16:36:06;92747.25;;;16.55;50.71
39681;BME280;26327;42.550;23.120;2022-09-25T16:38:39;92822.72;;;16.96;51.26
39681;BME280;26327;42.550;23.120;2022-09-25T16:43:34;92680.41;;;15.60;56.12
39681;BME280;26327;42.550;23.120;2022-09-25T16:46:19;92645.72;;;15.15;58.32
39681;BME280;26327;42.550;23.120;2022-09-25T16:49:04;92828.56;;;16.12;60.86
39681;BME280;26327;42.550;23.120;2022-09-25T16:51:29;92792.00;;;15.67;61.44
39681;BME280;26327;42.550;23.120;2022-09-25T16:53:58;92811.72;;;15.70;63.28
39681;BME280;26327;42.550;23.120;2022-09-25T16:59:56;92594.28;;;13.81;65.19
39681;BME280;26327;42.550;23.120;2022-09-25T17:11:47;92909.09;;;15.47;67.27
39681;BME280;26327;42.550;23.120;2022-09-25T17:17:44;92793.09;;;14.37;70.60
39681;BME280;26327;42.550;23.120;2022-09-25T17:20:10;92768.41;;;14.20;71.17
39681;BME280;26327;42.550;23.120;2022-09-25T17:22:36;92774.44;;;14.07;73.63
39681;BME280;26327;42.550;23.120;2022-09-25T17:27:52;92867.06;;;14.58;74.93
39681;BME280;26327;42.550;23.120;2022-09-25T17:30:17;92857.63;;;14.30;75.62
39681;BME280;26327;42.550;23.120;2022-09-25T17:32:43;92846.59;;;14.22;77.27
39681;BME280;26327;42.550;23.120;2022-09-25T17:35:26;92847.56;;;14.14;78.42
39681;BME280;26327;42.550;23.120;2022-09-25T17:37:52;92759.38;;;13.63;78.09
39681;BME280;26327;42.550;23.120;2022-09-25T17:40:18;92828.69;;;14.12;77.68
39681;BME280;26327;42.550;23.120;2022-09-25T17:42:43;92759.78;;;13.60;78.14
39681;BME280;26327;42.550;23.120;2022-09-25T17:45:30;92823.69;;;13.91;78.53
39681;BME280;26327;42.550;23.120;2022-09-25T17:47:57;92936.47;;;14.73;78.83
39681;BME280;26327;42.550;23.120;2022-09-25T17:50:23;92814.84;;;13.92;79.07
39681;BME280;26327;42.550;23.120;2022-09-25T17:52:49;92838.94;;;14.00;79.69
39681;BME280;26327;42.550;23.120;2022-09-25T17:55:17;92854.00;;;13.92;80.95
39681;BME280;26327;42.550;23.120;2022-09-25T17:57:42;92940.91;;;14.53;80.62
39681;BME280;26327;42.550;23.120;2022-09-25T18:00:09;92909.47;;;14.13;80.64
39681;BME280;26327;42.550;23.120;2022-09-25T18:02:34;92916.69;;;13.98;81.59
39681;BME280;26327;42.550;23.120;2022-09-25T18:05:00;92791.22;;;13.19;81.54
39681;BME280;26327;42.550;23.120;2022-09-25T18:07:27;92950.44;;;13.86;83.71
39681;BME280;26327;42.550;23.120;2022-09-25T18:09:52;92861.19;;;13.57;83.65
39681;BME280;26327;42.550;23.120;2022-09-25T18:12:18;92957.34;;;14.21;82.83
39681;BME280;26327;42.550;23.120;2022-09-25T18:14:43;92864.22;;;13.67;82.87
39681;BME280;26327;42.550;23.120;2022-09-25T18:17:13;92768.22;;;12.81;82.68
39681;BME280;26327;42.550;23.120;2022-09-25T18:19:39;92955.50;;;14.01;82.55
39681;BME280;26327;42.550;23.120;2022-09-25T18:22:23;92938.00;;;13.89;83.96
39681;BME280;26327;42.550;23.120;2022-09-25T18:24:51;92905.34;;;13.51;84.61
39681;BME280;26327;42.550;23.120;2022-09-25T18:27:22;92944.38;;;13.73;85.84
39681;BME280;26327;42.550;23.120;2022-09-25T18:29:48;92895.25;;;13.35;86.33
39681;BME280;26327;42.550;23.120;2022-09-25T18:32:16;92841.47;;;12.86;87.23
39681;BME280;26327;42.550;23.120;2022-09-25T18:34:42;92885.03;;;13.40;86.39
39681;BME280;26327;42.550;23.120;2022-09-25T18:37:07;92930.47;;;13.66;86.78
39681;BME280;26327;42.550;23.120;2022-09-25T18:39:33;92949.22;;;13.82;86.05
39681;BME280;26327;42.550;23.120;2022-09-25T18:41:59;92857.13;;;13.34;86.37
39681;BME280;26327;42.550;23.120;2022-09-25T18:44:24;92955.06;;;13.84;86.27
39681;BME280;26327;42.550;23.120;2022-09-25T18:46:50;92832.06;;;12.99;86.34
39681;BME280;26327;42.550;23.120;2022-09-25T18:49:17;92839.94;;;12.64;87.96
39681;BME280;26327;42.550;23.120;2022-09-25T18:51:43;92832.13;;;12.71;88.29
39681;BME280;26327;42.550;23.120;2022-09-25T18:54:11;92950.31;;;13.53;87.92
39681;BME280;26327;42.550;23.120;2022-09-25T18:56:37;92876.63;;;13.04;88.10
39681;BME280;26327;42.550;23.120;2022-09-25T18:59:03;92873.84;;;13.05;87.95
39681;BME280;26327;42.550;23.120;2022-09-25T19:01:36;92966.56;;;13.49;88.80
39681;BME280;26327;42.550;23.120;2022-09-25T19:04:02;92953.53;;;13.49;88.79
39681;BME280;26327;42.550;23.120;2022-09-25T19:06:29;92926.00;;;13.40;87.72
39681;BME280;26327;42.550;23.120;2022-09-25T19:08:57;92922.38;;;13.41;87.95
39681;BME280;26327;42.550;23.120;2022-09-25T19:11:25;92966.16;;;13.45;89.12
39681;BME280;26327;42.550;23.120;2022-09-25T19:13:51;92917.78;;;13.08;89.56
39681;BME280;26327;42.550;23.120;2022-09-25T19:16:19;92781.16;;;12.20;89.84
39681;BME280;26327;42.550;23.120;2022-09-25T19:18:45;92886.06;;;12.70;89.61
39681;BME280;26327;42.550;23.120;2022-09-25T19:21:12;92910.84;;;12.81;90.24
39681;BME280;26327;42.550;23.120;2022-09-25T19:23:39;92882.25;;;12.66;90.14
39681;BME280;26327;42.550;23.120;2022-09-25T19:26:09;92950.47;;;13.04;90.44
39681;BME280;26327;42.550;23.120;2022-09-25T19:28:36;92816.25;;;12.24;90.31
39681;BME280;26327;42.550;23.120;2022-09-25T19:31:04;92960.06;;;12.97;91.61
39681;BME280;26327;42.550;23.120;2022-09-25T19:33:32;92923.69;;;12.82;91.14
39681;BME280;26327;42.550;23.120;2022-09-25T19:35:59;92942.53;;;12.84;92.33
39681;BME280;26327;42.550;23.120;2022-09-25T19:38:30;92957.03;;;12.93;92.13
39681;BME280;26327;42.550;23.120;2022-09-25T19:40:56;92886.34;;;12.47;92.89
39681;BME280;26327;42.550;23.120;2022-09-25T19:43:21;92929.31;;;12.86;92.12
39681;BME280;26327;42.550;23.120;2022-09-25T19:45:49;92892.63;;;12.59;92.55
39681;BME280;26327;42.550;23.120;2022-09-25T19:48:15;92898.19;;;12.50;93.67
39681;BME280;26327;42.550;23.120;2022-09-25T19:50:41;92877.97;;;12.52;92.71
39681;BME280;26327;42.550;23.120;2022-09-25T19:53:06;92924.34;;;12.63;93.58
39681;BME280;26327;42.550;23.120;2022-09-25T19:55:34;92859.47;;;12.19;94.20
39681;BME280;26327;42.550;23.120;2022-09-25T19:58:01;92948.22;;;12.67;94.24
39681;BME280;26327;42.550;23.120;2022-09-25T20:00:26;92953.38;;;12.60;95.02
39681;BME280;26327;42.550;23.120;2022-09-25T20:02:52;92914.16;;;12.40;94.74
39681;BME280;26327;42.550;23.120;2022-09-25T20:05:17;92933.06;;;12.49;94.54
39681;BME280;26327;42.550;23.120;2022-09-25T20:07:42;92899.59;;;12.24;95.05
39681;BME280;26327;42.550;23.120;2022-09-25T20:10:08;92941.03;;;12.41;95.13
39681;BME280;26327;42.550;23.120;2022-09-25T20:12:33;92824.38;;;11.65;94.73
39681;BME280;26327;42.550;23.120;2022-09-25T20:14:59;92935.00;;;12.40;94.86
39681;BME280;26327;42.550;23.120;2022-09-25T20:17:24;92878.94;;;11.95;95.46
39681;BME280;26327;42.550;23.120;2022-09-25T20:19:50;92925.88;;;12.29;95.53
39681;BME280;26327;42.550;23.120;2022-09-25T20:22:15;92930.94;;;12.31;95.60
39681;BME280;26327;42.550;23.120;2022-09-25T20:24:41;92942.03;;;12.40;95.30
39681;BME280;26327;42.550;23.120;2022-09-25T20:27:06;92923.41;;;12.21;96.16
39681;BME280;26327;42.550;23.120;2022-09-25T20:29:32;92919.97;;;12.14;96.71
39681;BME280;26327;42.550;23.120;2022-09-25T20:31:57;92800.56;;;11.41;97.21
